createdAt,value
2023-03-15T00:01:40.509Z,100015.41
2023-03-15T00:04:07.210Z,100014.25
2023-03-15T00:06:34.591Z,100017.91
2023-03-15T00:09:02.059Z,100015.56
2023-03-15T00:11:32.574Z,100020.53
2023-03-15T00:13:59.480Z,100022.53
2023-03-15T00:16:27.040Z,100027.69
2023-03-15T00:18:54.796Z,100035.63
2023-03-15T00:21:21.692Z,100040.03
2023-03-15T00:23:48.571Z,100029.53
2023-03-15T00:26:15.656Z,100036.22
2023-03-15T00:28:42.193Z,100031.19
2023-03-15T00:31:15.483Z,100047.00
2023-03-15T00:33:42.836Z,100036.97
2023-03-15T00:36:11.512Z,100052.28
2023-03-15T00:38:39.669Z,100052.66
2023-03-15T00:41:12.038Z,100062.00
2023-03-15T00:43:38.928Z,100055.72
2023-03-15T00:46:06.285Z,100065.41
2023-03-15T00:48:35.097Z,100064.81
2023-03-15T00:51:03.639Z,100065.00
2023-03-15T00:53:30.329Z,100069.31
2023-03-15T00:55:57.122Z,100079.78
2023-03-15T00:58:25.911Z,100070.91
2023-03-15T01:00:53.610Z,100074.28
2023-03-15T01:03:20.824Z,100073.56
2023-03-15T01:05:47.240Z,100068.75
2023-03-15T01:08:13.656Z,100068.25
2023-03-15T01:10:40.206Z,100081.16
2023-03-15T01:13:07.280Z,100087.19
2023-03-15T01:15:33.678Z,100082.72
2023-03-15T01:18:00.112Z,100079.63
2023-03-15T01:20:26.573Z,100084.81
2023-03-15T01:22:53.121Z,100081.47
2023-03-15T01:25:19.655Z,100089.13
2023-03-15T01:27:46.190Z,100089.94
2023-03-15T01:30:12.956Z,100091.78
2023-03-15T01:32:39.416Z,100096.03
2023-03-15T01:35:06.519Z,100096.88
2023-03-15T01:37:34.504Z,100099.84
2023-03-15T01:40:01.095Z,100094.03
2023-03-15T01:42:27.603Z,100099.16
2023-03-15T01:44:57.836Z,100100.31
2023-03-15T01:47:27.361Z,100091.56
2023-03-15T01:50:05.492Z,100089.56
2023-03-15T01:52:36.207Z,100088.28
2023-03-15T01:55:19.423Z,100097.72
2023-03-15T01:57:56.055Z,100095.72
2023-03-15T02:00:22.721Z,100097.00
2023-03-15T02:02:55.304Z,100097.00
2023-03-15T02:05:25.659Z,100099.31
2023-03-15T02:07:54.588Z,100106.47
2023-03-15T02:10:30.654Z,100099.59
2023-03-15T02:12:58.371Z,100102.13
2023-03-15T02:15:24.861Z,100098.28
2023-03-15T02:17:51.936Z,100094.75
2023-03-15T02:20:53.806Z,100103.25
2023-03-15T02:23:22.262Z,100107.16
2023-03-15T02:26:00.563Z,100103.22
2023-03-15T02:28:27.826Z,100107.25
2023-03-15T02:30:54.972Z,100105.63
2023-03-15T02:33:24.137Z,100105.34
2023-03-15T02:35:51.320Z,100108.78
2023-03-15T02:38:18.738Z,100110.53
2023-03-15T02:40:46.599Z,100109.25
2023-03-15T02:43:20.238Z,100104.03
2023-03-15T02:45:47.876Z,100113.22
2023-03-15T02:48:14.801Z,100115.91
2023-03-15T02:50:41.289Z,100127.84
2023-03-15T02:53:08.125Z,100128.38
2023-03-15T02:55:34.667Z,100135.63
2023-03-15T02:58:02.319Z,100127.00
2023-03-15T03:00:29.279Z,100127.53
2023-03-15T03:02:55.796Z,100138.47
2023-03-15T03:05:22.739Z,100141.91
2023-03-15T03:07:50.431Z,100148.75
2023-03-15T03:10:19.605Z,100151.88
2023-03-15T03:12:46.725Z,100151.22
2023-03-15T03:15:13.323Z,100156.06
2023-03-15T03:17:39.788Z,100158.47
2023-03-15T03:20:11.684Z,100152.78
2023-03-15T03:22:38.456Z,100164.75
2023-03-15T03:25:06.313Z,100158.09
2023-03-15T03:27:36.662Z,100172.44
2023-03-15T03:30:09.107Z,100175.50
2023-03-15T03:32:35.830Z,100177.81
2023-03-15T03:35:02.610Z,100179.28
2023-03-15T03:37:30.970Z,100170.91
2023-03-15T03:39:58.000Z,100180.31
2023-03-15T03:42:24.901Z,100182.94
2023-03-15T03:44:51.578Z,100186.84
2023-03-15T03:47:18.045Z,100195.13
2023-03-15T03:49:44.476Z,100189.16
2023-03-15T03:52:11.098Z,100196.16
2023-03-15T03:54:37.543Z,100194.22
2023-03-15T03:57:04.395Z,100206.22
2023-03-15T03:59:30.894Z,100204.53
2023-03-15T04:01:57.331Z,100208.31
2023-03-15T04:04:26.228Z,100219.19
2023-03-15T04:06:54.566Z,100224.44
2023-03-15T04:09:21.984Z,100217.59
2023-03-15T04:11:48.448Z,100215.81
2023-03-15T04:14:15.090Z,100221.16
2023-03-15T04:16:41.751Z,100231.97
2023-03-15T04:19:08.659Z,100235.41
2023-03-15T04:21:35.198Z,100239.94
2023-03-15T04:24:02.077Z,100234.03
2023-03-15T04:26:29.425Z,100242.81
2023-03-15T04:28:57.945Z,100242.25
2023-03-15T04:31:27.254Z,100239.72
2023-03-15T04:33:55.074Z,100247.56
2023-03-15T04:36:23.330Z,100255.38
2023-03-15T04:38:50.636Z,100253.53
2023-03-15T04:41:18.360Z,100251.41
2023-03-15T04:43:44.899Z,100265.31
2023-03-15T04:46:12.067Z,100264.13
2023-03-15T04:48:38.569Z,100264.09
2023-03-15T04:51:05.189Z,100276.22
2023-03-15T04:53:31.763Z,100278.16
2023-03-15T04:55:58.204Z,100280.00
2023-03-15T04:58:24.649Z,100280.84
2023-03-15T05:00:53.933Z,100287.72
2023-03-15T05:03:20.532Z,100278.38
2023-03-15T05:05:46.941Z,100279.53
2023-03-15T05:08:13.433Z,100298.84
2023-03-15T05:10:39.933Z,100295.13
2023-03-15T05:13:06.737Z,100303.16
2023-03-15T05:15:33.263Z,100301.00
2023-03-15T05:17:59.852Z,100307.06
2023-03-15T05:20:26.354Z,100310.41
2023-03-15T05:22:55.659Z,100309.00
2023-03-15T05:25:22.290Z,100314.72
2023-03-15T05:27:48.768Z,100318.81
2023-03-15T05:30:18.038Z,100327.44
2023-03-15T05:32:44.896Z,100327.47
2023-03-15T05:35:13.003Z,100335.34
2023-03-15T05:37:39.616Z,100337.72
2023-03-15T05:40:09.752Z,100340.94
2023-03-15T05:42:36.246Z,100351.75
2023-03-15T05:45:03.037Z,100357.50
2023-03-15T05:47:29.485Z,100364.13
2023-03-15T05:49:55.896Z,100374.94
2023-03-15T05:52:22.585Z,100370.88
2023-03-15T05:54:48.983Z,100374.22
2023-03-15T05:57:15.431Z,100383.19
2023-03-15T05:59:41.959Z,100386.69
2023-03-15T06:02:08.425Z,100396.22
2023-03-15T06:04:36.368Z,100397.88
2023-03-15T06:07:02.931Z,100397.25
2023-03-15T06:10:04.788Z,100405.22
2023-03-15T06:12:31.350Z,100413.63
2023-03-15T06:14:57.777Z,100419.66
2023-03-15T06:20:27.859Z,100430.78
2023-03-15T06:22:54.290Z,100435.91
2023-03-15T06:25:20.743Z,100445.88
2023-03-15T06:27:47.156Z,100436.41
2023-03-15T06:30:16.597Z,100444.59
2023-03-15T06:32:43.445Z,100464.19
2023-03-15T06:35:10.046Z,100463.66
2023-03-15T06:37:36.426Z,100457.06
2023-03-15T06:40:12.923Z,100466.13
2023-03-15T06:42:41.640Z,100459.84
2023-03-15T06:45:09.850Z,100476.06
2023-03-15T06:47:36.304Z,100473.53
2023-03-15T06:50:03.943Z,100481.34
2023-03-15T06:52:30.428Z,100477.78
2023-03-15T06:54:56.944Z,100482.03
2023-03-15T06:57:23.478Z,100480.34
2023-03-15T06:59:50.556Z,100488.63
2023-03-15T07:02:18.908Z,100485.56
2023-03-15T07:04:45.429Z,100496.00
2023-03-15T07:07:12.888Z,100491.81
2023-03-15T07:09:40.197Z,100497.75
2023-03-15T07:14:49.512Z,100503.16
2023-03-15T07:17:16.178Z,100505.56
2023-03-15T07:19:55.527Z,100513.28
2023-03-15T07:22:22.982Z,100508.41
2023-03-15T07:24:49.528Z,100511.38
2023-03-15T07:27:18.826Z,100514.59
2023-03-15T07:29:45.709Z,100515.47
2023-03-15T07:32:12.336Z,100513.34
2023-03-15T07:34:38.849Z,100529.88
2023-03-15T07:37:05.305Z,100528.41
2023-03-15T07:39:32.591Z,100541.34
2023-03-15T07:41:59.649Z,100548.03
2023-03-15T07:44:29.339Z,100538.81
2023-03-15T07:46:58.434Z,100545.72
2023-03-15T07:49:47.184Z,100543.84
2023-03-15T07:52:13.602Z,100547.84
2023-03-15T07:54:40.641Z,100567.06
2023-03-15T07:57:07.326Z,100554.97
2023-03-15T07:59:33.807Z,100562.38
2023-03-15T08:02:02.856Z,100563.97
2023-03-15T08:04:29.661Z,100571.59
2023-03-15T08:06:56.738Z,100568.63
2023-03-15T08:09:25.496Z,100567.94
2023-03-15T08:11:52.006Z,100573.00
2023-03-15T08:14:18.465Z,100568.97
2023-03-15T08:16:44.942Z,100579.19
2023-03-15T08:19:11.390Z,100581.00
2023-03-15T08:21:37.866Z,100589.97
2023-03-15T08:24:04.429Z,100581.22
2023-03-15T08:26:30.849Z,100585.38
2023-03-15T08:29:18.917Z,100595.53
2023-03-15T08:31:45.430Z,100592.34
2023-03-15T08:34:12.162Z,100593.81
2023-03-15T08:36:38.745Z,100601.31
2023-03-15T08:39:05.736Z,100595.91
2023-03-15T08:41:32.738Z,100600.38
2023-03-15T08:43:59.276Z,100606.13
2023-03-15T08:46:26.858Z,100607.31
2023-03-15T08:48:53.527Z,100615.75
2023-03-15T08:51:21.621Z,100620.53
2023-03-15T08:53:53.859Z,100621.34
2023-03-15T08:56:20.928Z,100627.50
2023-03-15T08:59:05.798Z,100626.03
2023-03-15T09:01:32.202Z,100631.22
2023-03-15T09:03:58.786Z,100640.16
2023-03-15T09:06:25.380Z,100648.63
2023-03-15T09:08:53.744Z,100652.50
2023-03-15T09:11:21.002Z,100655.88
2023-03-15T09:13:47.694Z,100645.19
2023-03-15T09:16:14.862Z,100651.78
2023-03-15T09:18:46.922Z,100657.66
2023-03-15T09:21:13.349Z,100666.41
2023-03-15T09:23:39.826Z,100672.81
2023-03-15T09:26:06.292Z,100681.16
2023-03-15T09:28:41.725Z,100687.31
2023-03-15T09:31:08.347Z,100678.53
2023-03-15T09:33:34.775Z,100695.69
2023-03-15T09:36:01.280Z,100690.22
2023-03-15T09:38:28.061Z,100688.56
2023-03-15T09:41:10.221Z,100686.34
2023-03-15T09:43:48.676Z,100686.84
2023-03-15T09:46:54.187Z,100692.78
2023-03-15T09:49:32.414Z,100698.19
2023-03-15T09:52:06.202Z,100698.06
2023-03-15T09:54:46.138Z,100698.16
2023-03-15T09:57:18.656Z,100701.00
2023-03-15T09:59:49.173Z,100705.66
2023-03-15T10:02:25.311Z,100716.78
2023-03-15T10:05:20.191Z,100715.59
2023-03-15T10:07:46.915Z,100718.94
2023-03-15T10:10:24.403Z,100717.69
2023-03-15T10:13:05.634Z,100715.53
2023-03-15T10:15:48.177Z,100716.41
2023-03-15T10:18:33.248Z,100719.19
2023-03-15T10:21:27.467Z,100708.31
2023-03-15T10:23:54.844Z,100709.66
2023-03-15T10:26:27.444Z,100706.97
2023-03-15T10:28:53.913Z,100692.66
2023-03-15T10:31:36.848Z,100692.53
2023-03-15T10:34:11.480Z,100695.44
2023-03-15T10:36:44.100Z,100687.91
2023-03-15T10:39:12.419Z,100685.91
2023-03-15T10:41:41.256Z,100692.19
2023-03-15T10:44:27.464Z,100705.19
2023-03-15T10:47:21.418Z,100693.13
2023-03-15T10:49:50.227Z,100696.41
2023-03-15T10:52:26.959Z,100699.81
2023-03-15T10:54:58.742Z,100721.06
2023-03-15T10:57:37.015Z,100723.72
2023-03-15T11:00:32.467Z,100720.38
2023-03-15T11:03:03.910Z,100724.00
2023-03-15T11:05:42.745Z,100726.97
2023-03-15T11:08:15.395Z,100725.41
2023-03-15T11:11:26.781Z,100731.00
2023-03-15T11:14:01.034Z,100736.66
2023-03-15T11:16:34.765Z,100731.38
2023-03-15T11:19:03.489Z,100737.34
2023-03-15T11:21:35.415Z,100740.25
2023-03-15T11:24:04.335Z,100746.00
2023-03-15T11:26:36.271Z,100740.06
2023-03-15T11:29:20.538Z,100746.34
2023-03-15T11:31:47.301Z,100738.03
2023-03-15T11:34:22.376Z,100748.09
2023-03-15T11:37:07.136Z,100744.50
2023-03-15T11:39:45.344Z,100746.34
2023-03-15T11:42:22.146Z,100749.94
2023-03-15T11:44:55.020Z,100752.94
2023-03-15T11:47:47.444Z,100751.66
2023-03-15T11:50:15.434Z,100742.84
2023-03-15T11:52:43.047Z,100742.78
2023-03-15T11:55:24.647Z,100754.94
2023-03-15T11:57:52.086Z,100757.03
2023-03-15T12:00:26.763Z,100757.38
2023-03-15T12:02:53.289Z,100755.25
2023-03-15T12:05:41.654Z,100748.88
2023-03-15T12:08:20.258Z,100755.09
2023-03-15T12:10:49.573Z,100750.16
2023-03-15T12:13:28.407Z,100747.41
2023-03-15T12:15:55.872Z,100742.53
2023-03-15T12:18:31.343Z,100735.00
2023-03-15T12:21:18.877Z,100755.59
2023-03-15T12:24:08.683Z,100750.75
2023-03-15T12:26:45.396Z,100741.88
2023-03-15T12:29:25.626Z,100739.53
2023-03-15T12:31:53.829Z,100749.50
2023-03-15T12:34:27.841Z,100744.88
2023-03-15T12:36:59.509Z,100746.38
2023-03-15T12:39:38.167Z,100748.50
2023-03-15T12:42:05.258Z,100748.50
2023-03-15T12:44:31.853Z,100766.63
2023-03-15T12:47:02.628Z,100771.38
2023-03-15T12:49:30.586Z,100770.28
2023-03-15T12:52:01.549Z,100771.69
2023-03-15T12:54:34.865Z,100773.06
2023-03-15T12:57:04.183Z,100782.00
2023-03-15T12:59:54.703Z,100775.63
2023-03-15T13:02:42.699Z,100777.13
2023-03-15T13:05:10.466Z,100772.28
2023-03-15T13:07:58.094Z,100773.13
2023-03-15T13:10:54.586Z,100776.81
2023-03-15T13:13:45.045Z,100770.91
2023-03-15T13:16:30.990Z,100780.63
2023-03-15T13:19:19.180Z,100771.16
2023-03-15T13:22:04.575Z,100782.50
2023-03-15T13:24:34.030Z,100803.72
2023-03-15T13:27:23.254Z,100818.63
2023-03-15T13:29:50.485Z,100820.78
2023-03-15T13:32:21.982Z,100835.16
2023-03-15T13:34:49.123Z,100830.06
2023-03-15T13:37:25.749Z,100835.09
2023-03-15T13:39:56.024Z,100845.88
2023-03-15T13:42:24.552Z,100849.84
2023-03-15T13:45:23.570Z,100856.56
2023-03-15T13:47:50.019Z,100855.00
2023-03-15T13:50:19.077Z,100853.00
2023-03-15T13:52:46.939Z,100849.31
2023-03-15T13:55:15.927Z,100861.38
2023-03-15T13:57:43.009Z,100871.81
2023-03-15T14:00:19.081Z,100875.03
2023-03-15T14:03:02.251Z,100869.31
2023-03-15T14:05:36.543Z,100864.16
2023-03-15T14:08:06.024Z,100875.34
2023-03-15T14:10:38.476Z,100881.59
2023-03-15T14:13:32.388Z,100868.53
2023-03-15T14:16:07.307Z,100881.19
2023-03-15T14:18:39.095Z,100873.72
2023-03-15T14:21:07.159Z,100866.06
2023-03-15T14:23:40.594Z,100866.66
2023-03-15T14:26:22.832Z,100866.41
2023-03-15T14:28:56.878Z,100881.72
2023-03-15T14:31:26.457Z,100873.13
2023-03-15T14:34:23.787Z,100880.56
2023-03-15T14:36:52.867Z,100883.56
2023-03-15T14:39:24.173Z,100877.91
2023-03-15T14:41:50.579Z,100885.34
2023-03-15T14:44:17.104Z,100875.19
2023-03-15T14:46:43.902Z,100886.53
2023-03-15T14:49:19.849Z,100882.44
2023-03-15T14:51:47.225Z,100879.78
2023-03-15T14:54:13.678Z,100882.28
2023-03-15T14:56:41.280Z,100886.00
2023-03-15T14:59:12.310Z,100880.50
2023-03-15T15:01:46.494Z,100887.13
2023-03-15T15:04:14.371Z,100887.19
2023-03-15T15:06:52.765Z,100887.78
2023-03-15T15:09:23.776Z,100885.72
2023-03-15T15:11:51.570Z,100892.88
2023-03-15T15:14:18.728Z,100886.47
2023-03-15T15:16:45.852Z,100887.34
2023-03-15T15:19:12.730Z,100892.88
2023-03-15T15:21:39.811Z,100902.50
2023-03-15T15:24:18.465Z,100903.13
2023-03-15T15:26:45.046Z,100898.16
2023-03-15T15:29:16.162Z,100900.81
2023-03-15T15:31:44.047Z,100916.19
2023-03-15T15:34:12.021Z,100912.06
2023-03-15T15:36:41.033Z,100921.88
2023-03-15T15:39:21.890Z,100934.53
2023-03-15T15:41:49.025Z,100928.28
2023-03-15T15:44:19.165Z,100927.50
2023-03-15T15:46:45.676Z,100930.16
2023-03-15T15:49:12.483Z,100928.84
2023-03-15T15:51:42.256Z,100925.88
2023-03-15T15:54:18.692Z,100926.28
2023-03-15T15:56:51.694Z,100924.00
2023-03-15T15:59:19.266Z,100935.72
2023-03-15T16:01:59.685Z,100940.78
2023-03-15T16:04:26.814Z,100929.09
2023-03-15T16:06:59.383Z,100946.00
2023-03-15T16:09:28.466Z,100949.28
2023-03-15T16:11:55.258Z,100941.16
2023-03-15T16:14:21.769Z,100940.25
2023-03-15T16:16:48.532Z,100947.72
2023-03-15T16:19:14.970Z,100959.75
2023-03-15T16:21:45.131Z,100959.97
2023-03-15T16:24:16.637Z,100966.19
2023-03-15T16:26:45.232Z,100960.94
2023-03-15T16:29:14.847Z,100958.81
2023-03-15T16:31:41.948Z,100968.72
2023-03-15T16:34:12.832Z,100969.09
2023-03-15T16:36:43.465Z,100986.81
2023-03-15T16:39:12.789Z,100983.16
2023-03-15T16:41:40.195Z,100977.63
2023-03-15T16:44:17.946Z,100989.03
2023-03-15T16:46:44.778Z,100976.34
2023-03-15T16:49:12.059Z,100988.50
2023-03-15T16:51:44.185Z,101003.19
2023-03-15T16:54:21.769Z,101010.13
2023-03-15T16:56:51.267Z,101007.41
2023-03-15T16:59:18.126Z,101021.22
2023-03-15T17:01:46.033Z,101015.53
2023-03-15T17:04:14.672Z,101019.41
2023-03-15T17:06:42.623Z,101027.19
2023-03-15T17:09:13.923Z,101029.78
2023-03-15T17:11:42.891Z,101035.41
2023-03-15T17:14:15.888Z,101031.47
2023-03-15T17:16:42.399Z,101042.06
2023-03-15T17:19:13.648Z,101043.97
2023-03-15T17:21:41.432Z,101042.56
2023-03-15T17:24:11.964Z,101046.38
2023-03-15T17:26:40.129Z,101045.59
2023-03-15T17:29:07.288Z,101055.75
2023-03-15T17:31:35.377Z,101046.91
2023-03-15T17:34:02.100Z,101047.88
2023-03-15T17:36:37.339Z,101057.59
2023-03-15T17:39:05.332Z,101054.22
2023-03-15T17:41:34.804Z,101059.47
2023-03-15T17:44:01.641Z,101061.75
2023-03-15T17:46:30.130Z,101065.31
2023-03-15T17:48:58.077Z,101069.34
2023-03-15T17:51:28.230Z,101069.13
2023-03-15T17:53:54.954Z,101075.38
2023-03-15T17:56:22.854Z,101078.09
2023-03-15T17:58:49.624Z,101082.28
2023-03-15T18:01:19.595Z,101077.97
2023-03-15T18:03:47.572Z,101076.16
2023-03-15T18:06:14.201Z,101081.81
2023-03-15T18:08:40.727Z,101085.47
2023-03-15T18:11:16.606Z,101081.88
2023-03-15T18:13:43.545Z,101095.06
2023-03-15T18:16:14.512Z,101081.03
2023-03-15T18:18:42.090Z,101088.94
2023-03-15T18:21:18.050Z,101081.78
2023-03-15T18:23:45.220Z,101080.75
2023-03-15T18:26:12.993Z,101092.63
2023-03-15T18:28:40.312Z,101091.22
2023-03-15T18:31:25.929Z,101086.69
2023-03-15T18:33:54.008Z,101097.41
2023-03-15T18:36:20.889Z,101092.28
2023-03-15T18:38:47.525Z,101093.78
2023-03-15T18:41:23.565Z,101089.03
2023-03-15T18:43:51.557Z,101093.69
2023-03-15T18:46:20.215Z,101087.75
2023-03-15T18:48:47.728Z,101094.06
2023-03-15T18:51:15.400Z,101095.78
2023-03-15T18:53:43.186Z,101102.00
2023-03-15T18:56:19.401Z,101100.41
2023-03-15T18:58:50.788Z,101104.94
2023-03-15T19:01:19.392Z,101102.31
2023-03-15T19:03:46.010Z,101108.50
2023-03-15T19:06:13.201Z,101108.59
2023-03-15T19:08:40.079Z,101096.31
2023-03-15T19:11:08.429Z,101104.13
2023-03-15T19:13:35.139Z,101100.63
2023-03-15T19:16:01.833Z,101097.53
2023-03-15T19:18:28.816Z,101099.16
2023-03-15T19:20:55.359Z,101104.63
2023-03-15T19:23:21.853Z,101108.41
2023-03-15T19:25:48.532Z,101110.81
2023-03-15T19:28:15.309Z,101125.03
2023-03-15T19:30:42.312Z,101125.19
2023-03-15T19:33:09.173Z,101134.88
2023-03-15T19:35:35.917Z,101133.34
2023-03-15T19:38:02.669Z,101131.94
2023-03-15T19:40:29.133Z,101142.72
2023-03-15T19:42:55.655Z,101128.72
2023-03-15T19:45:22.105Z,101142.91
2023-03-15T19:47:48.536Z,101144.28
2023-03-15T19:50:15.413Z,101145.09
2023-03-15T19:52:46.128Z,101148.84
2023-03-15T19:55:17.875Z,101160.69
2023-03-15T19:57:44.926Z,101160.00
2023-03-15T20:00:14.267Z,101168.69
2023-03-15T20:02:43.770Z,101162.16
2023-03-15T20:05:12.452Z,101169.91
2023-03-15T20:07:39.134Z,101161.72
2023-03-15T20:10:08.439Z,101163.00
2023-03-15T20:12:36.213Z,101161.81
2023-03-15T20:15:03.373Z,101153.84
2023-03-15T20:17:30.512Z,101162.00
2023-03-15T20:19:56.954Z,101157.81
2023-03-15T20:22:23.606Z,101157.50
2023-03-15T20:24:50.551Z,101165.31
2023-03-15T20:27:17.001Z,101166.63
2023-03-15T20:29:43.502Z,101166.00
2023-03-15T20:32:10.602Z,101164.19
2023-03-15T20:34:39.469Z,101173.19
2023-03-15T20:37:06.661Z,101177.25
2023-03-15T20:39:33.377Z,101176.19
2023-03-15T20:41:59.758Z,101179.50
2023-03-15T20:44:26.306Z,101183.16
2023-03-15T20:46:56.598Z,101175.94
2023-03-15T20:49:23.097Z,101183.94
2023-03-15T20:51:49.539Z,101186.34
2023-03-15T20:54:16.023Z,101197.69
2023-03-15T20:56:42.575Z,101193.41
2023-03-15T20:59:08.994Z,101198.06
2023-03-15T21:01:35.498Z,101201.59
2023-03-15T21:04:02.013Z,101209.44
2023-03-15T21:06:28.421Z,101210.69
2023-03-15T21:08:54.880Z,101208.94
2023-03-15T21:11:21.319Z,101204.72
2023-03-15T21:13:47.781Z,101211.75
2023-03-15T21:16:14.350Z,101212.63
2023-03-15T21:18:44.713Z,101198.63
2023-03-15T21:21:11.644Z,101211.53
2023-03-15T21:23:38.074Z,101204.88
2023-03-15T21:26:10.466Z,101202.69
2023-03-15T21:28:37.396Z,101202.66
2023-03-15T21:31:04.027Z,101202.34
2023-03-15T21:33:31.343Z,101212.72
2023-03-15T21:35:59.384Z,101213.38
2023-03-15T21:38:31.363Z,101203.69
2023-03-15T21:40:59.499Z,101219.69
2023-03-15T21:43:33.031Z,101218.25
2023-03-15T21:46:05.516Z,101215.91
2023-03-15T21:48:32.312Z,101213.75
2023-03-15T21:50:58.858Z,101218.09
2023-03-15T21:53:25.303Z,101210.38
2023-03-15T21:55:55.320Z,101217.13
2023-03-15T21:58:21.836Z,101208.53
2023-03-15T22:00:48.410Z,101214.75
2023-03-15T22:03:16.706Z,101219.63
2023-03-15T22:05:46.649Z,101214.47
2023-03-15T22:08:13.144Z,101217.00
2023-03-15T22:10:39.648Z,101211.34
2023-03-15T22:13:06.086Z,101216.22
2023-03-15T22:15:33.871Z,101217.13
2023-03-15T22:18:00.483Z,101224.09
2023-03-15T22:20:27.188Z,101218.03
2023-03-15T22:22:53.829Z,101229.13
2023-03-15T22:25:20.459Z,101225.50
2023-03-15T22:27:47.089Z,101220.84
2023-03-15T22:30:14.595Z,101221.41
2023-03-15T22:32:44.257Z,101222.28
2023-03-15T22:35:12.770Z,101222.50
2023-03-15T22:37:39.680Z,101219.00
2023-03-15T22:40:06.954Z,101213.50
2023-03-15T22:42:33.373Z,101214.28
2023-03-15T22:44:59.799Z,101216.69
2023-03-15T22:47:26.372Z,101223.50
2023-03-15T22:49:54.593Z,101228.47
2023-03-15T22:52:21.151Z,101225.91
2023-03-15T22:54:47.608Z,101223.25
2023-03-15T22:57:14.044Z,101226.53
2023-03-15T22:59:40.540Z,101222.09
2023-03-15T23:02:07.183Z,101227.00
2023-03-15T23:04:33.945Z,101220.91
2023-03-15T23:07:01.650Z,101221.84
2023-03-15T23:09:28.189Z,101225.63
2023-03-15T23:11:54.597Z,101224.75
2023-03-15T23:14:21.488Z,101225.78
2023-03-15T23:16:47.965Z,101224.84
2023-03-15T23:19:15.018Z,101221.03
2023-03-15T23:21:41.426Z,101228.97
2023-03-15T23:24:08.602Z,101222.09
2023-03-15T23:26:37.551Z,101217.72
2023-03-15T23:29:10.634Z,101227.34
2023-03-15T23:31:41.708Z,101226.56
2023-03-15T23:34:08.680Z,101227.56
2023-03-15T23:36:35.823Z,101232.84
2023-03-15T23:39:02.312Z,101230.34
2023-03-15T23:41:29.090Z,101232.25
2023-03-15T23:43:55.545Z,101235.91
2023-03-15T23:46:24.227Z,101244.44
2023-03-15T23:48:52.276Z,101238.28
2023-03-15T23:51:19.426Z,101242.72
2023-03-15T23:53:45.822Z,101246.06
2023-03-15T23:56:12.268Z,101251.31
2023-03-15T23:58:38.722Z,101255.91
